Time;durP1;ratioP1;P1;durP2;ratioP2;P2;SDS_P1;SDS_P2;PMS_P1;PMS_P2;Temp;Humidity;BMP_temperature;BMP_pressure;BME280_temperature;BME280_humidity;BME280_pressure;Samples;Min_cycle;Max_cycle;Signal;HPM_P1;HPM_P2
2022/01/30 00:02:12;;;;;;;;;;;4.30;99.90;;;;;;5139166;28;19933;-76
2022/01/30 00:04:38;;;;;;;;;;;4.20;99.90;;;;;;5147549;27;20002;-77
2022/01/30 00:07:03;;;;;;;;;;;4.30;99.90;;;;;;5137001;27;20272;-76
2022/01/30 00:09:29;;;;;;;;;;;4.30;99.90;;;;;;5135866;27;19908;-77
2022/01/30 00:11:58;;;;;;;;;;;4.20;99.90;;;;;;5136290;27;20023;-76
2022/01/30 00:14:26;;;;;;;;;;;4.10;99.90;;;;;;5135708;27;19918;-77
2022/01/30 00:17:00;;;;;;;;;;;4.00;99.90;;;;;;5136564;27;19912;-77
2022/01/30 00:19:34;;;;;;;;;;;4.00;99.90;;;;;;5135381;27;20288;-77
2022/01/30 00:22:14;;;;;;;;;;;4.00;99.90;;;;;;5136495;27;19908;-78
2022/01/30 00:27:15;;;;;;;;;;;3.90;99.90;;;;;;5149637;27;20341;-77
2022/01/30 00:29:41;;;;;;;;;;;3.80;99.90;;;;;;5157356;27;19929;-78
2022/01/30 00:32:06;;;;;;;;;;;3.80;99.90;;;;;;5155645;27;19907;-78
2022/01/30 00:34:32;;;;;;;;;;;3.70;99.90;;;;;;5138243;27;20360;-77
2022/01/30 00:37:00;;;;;;;;;;;3.70;99.90;;;;;;5136342;27;19912;-78
2022/01/30 00:39:25;;;;;;;;;;;3.60;99.90;;;;;;5135793;27;19919;-77
2022/01/30 00:41:51;;;;;;;;;;;3.60;99.90;;;;;;5136178;27;19907;-77
2022/01/30 00:44:16;;;;;;;;;;;3.60;99.90;;;;;;5135667;27;19907;-78
2022/01/30 00:46:44;;;;;;;;;;;3.60;99.90;;;;;;5136461;27;19952;-78
2022/01/30 00:49:10;;;;;;;;;;;3.50;99.90;;;;;;5136429;27;19998;-78
2022/01/30 00:51:37;;;;;;;;;;;3.40;99.90;;;;;;5117202;27;20013;-78
2022/01/30 00:54:03;;;;;;;;;;;3.40;99.90;;;;;;5136283;27;20056;-78
2022/01/30 00:56:29;;;;;;;;;;;3.30;99.90;;;;;;5135326;27;20403;-78
2022/01/30 00:58:54;;;;;;;;;;;3.30;99.90;;;;;;5136473;27;19912;-78
2022/01/30 01:01:20;;;;;;;;;;;3.30;99.90;;;;;;5135473;27;20268;-77
2022/01/30 01:03:45;;;;;;;;;;;3.30;99.90;;;;;;5135984;27;19908;-77
2022/01/30 01:06:11;;;;;;;;;;;3.20;99.90;;;;;;5135818;27;19933;-77
2022/01/30 01:08:53;;;;;;;;;;;3.10;99.90;;;;;;5135075;27;19908;-77
2022/01/30 01:24:37;;;;;;;;;;;3.20;99.90;;;;;;5136696;27;20002;-78
2022/01/30 01:27:02;;;;;;;;;;;3.20;99.90;;;;;;5150393;27;19907;-77
2022/01/30 01:29:28;;;;;;;;;;;3.20;99.90;;;;;;5134878;27;19907;-76
2022/01/30 01:31:53;;;;;;;;;;;3.20;99.90;;;;;;5135986;27;20382;-77
2022/01/30 01:34:34;;;;;;;;;;;3.20;99.90;;;;;;5134541;27;20284;-76
2022/01/30 01:37:00;;;;;;;;;;;3.10;99.90;;;;;;5135127;27;19915;-78
2022/01/30 01:39:25;;;;;;;;;;;3.10;99.90;;;;;;5134741;27;20410;-77
2022/01/30 01:41:51;;;;;;;;;;;3.20;99.90;;;;;;5135263;27;19913;-77
2022/01/30 01:44:17;;;;;;;;;;;3.20;99.90;;;;;;5135015;27;19967;-75
2022/01/30 01:46:45;;;;;;;;;;;3.10;99.90;;;;;;5135059;27;19911;-80
2022/01/30 01:49:18;;;;;;;;;;;3.10;99.90;;;;;;5134965;27;19915;-79
2022/01/30 01:51:49;;;;;;;;;;;3.00;99.90;;;;;;5134658;27;19923;-76
2022/01/30 01:54:14;;;;;;;;;;;2.90;99.90;;;;;;5135158;27;19960;-77
2022/01/30 01:56:40;;;;;;;;;;;2.90;99.90;;;;;;5134540;27;19919;-77
2022/01/30 01:59:05;;;;;;;;;;;2.90;99.90;;;;;;5135393;27;19912;-78
2022/01/30 02:01:31;;;;;;;;;;;2.90;99.90;;;;;;5134143;27;20306;-78
2022/01/30 02:03:57;;;;;;;;;;;2.80;99.90;;;;;;5134573;27;19907;-78
2022/01/30 02:06:24;;;;;;;;;;;2.80;99.90;;;;;;5133968;27;19937;-77
2022/01/30 02:08:59;;;;;;;;;;;2.70;99.90;;;;;;5134909;27;19907;-77
2022/01/30 02:11:41;;;;;;;;;;;2.80;99.90;;;;;;5133493;27;20388;-79
2022/01/30 02:24:58;;;;;;;;;;;2.70;99.90;;;;;;5134377;27;20310;-78
2022/01/30 02:27:27;;;;;;;;;;;2.70;99.90;;;;;;5133154;27;19919;-77
2022/01/30 02:29:52;;;;;;;;;;;2.70;99.90;;;;;;5134377;27;19908;-77
2022/01/30 02:32:19;;;;;;;;;;;2.60;99.90;;;;;;5134407;27;20010;-78
2022/01/30 02:34:45;;;;;;;;;;;2.60;99.90;;;;;;5115472;27;19956;-78
2022/01/30 02:37:13;;;;;;;;;;;2.60;99.90;;;;;;5133729;27;20005;-78
2022/01/30 02:39:38;;;;;;;;;;;2.60;99.90;;;;;;5133515;27;19933;-78
2022/01/30 02:42:04;;;;;;;;;;;2.60;99.90;;;;;;5134102;27;19998;-78
2022/01/30 02:44:50;;;;;;;;;;;2.50;99.90;;;;;;5133311;27;19908;-78
2022/01/30 02:48:29;;;;;;;;;;;2.50;99.90;;;;;;5115940;27;20217;-78
2022/01/30 02:52:39;;;;;;;;;;;2.50;99.90;;;;;;5133433;27;19963;-77
2022/01/30 02:55:05;;;;;;;;;;;2.40;99.90;;;;;;5133989;27;19952;-78
2022/01/30 02:57:31;;;;;;;;;;;2.50;99.90;;;;;;5132724;27;20013;-78
2022/01/30 02:59:56;;;;;;;;;;;2.50;99.90;;;;;;5133923;27;20068;-78
2022/01/30 03:02:22;;;;;;;;;;;2.50;99.90;;;;;;5133668;27;20473;-76
2022/01/30 03:04:48;;;;;;;;;;;2.50;99.90;;;;;;5133466;27;19915;-78
2022/01/30 03:07:13;;;;;;;;;;;2.50;99.90;;;;;;5133880;27;20291;-78
2022/01/30 03:09:39;;;;;;;;;;;2.50;99.90;;;;;;5133183;27;19912;-78
2022/01/30 03:12:05;;;;;;;;;;;2.50;99.90;;;;;;5115270;27;19912;-78
2022/01/30 03:14:30;;;;;;;;;;;2.40;99.90;;;;;;5132705;27;19960;-78
2022/01/30 03:16:56;;;;;;;;;;;2.40;99.90;;;;;;5133331;27;19919;-78
2022/01/30 03:19:21;;;;;;;;;;;2.40;99.90;;;;;;5151818;27;19911;-78
2022/01/30 03:21:47;;;;;;;;;;;2.40;99.90;;;;;;5137905;27;19907;-78
2022/01/30 03:24:13;;;;;;;;;;;2.50;99.90;;;;;;5133603;27;19918;-78
2022/01/30 03:26:40;;;;;;;;;;;2.40;99.90;;;;;;5132789;27;19907;-78
2022/01/30 03:29:07;;;;;;;;;;;2.40;99.90;;;;;;5133672;27;19907;-78
2022/01/30 03:31:37;;;;;;;;;;;2.40;99.90;;;;;;5132748;27;19986;-78
2022/01/30 03:34:03;;;;;;;;;;;2.30;99.90;;;;;;5133519;28;19907;-79
2022/01/30 03:36:29;;;;;;;;;;;2.30;99.90;;;;;;5132438;28;19919;-78
2022/01/30 03:38:54;;;;;;;;;;;2.30;99.90;;;;;;5135089;27;19912;-79
2022/01/30 03:41:20;;;;;;;;;;;2.40;99.90;;;;;;5137807;27;19907;-79
2022/01/30 03:43:46;;;;;;;;;;;2.30;99.90;;;;;;5136788;27;19943;-78
2022/01/30 03:46:11;;;;;;;;;;;2.30;99.90;;;;;;5137258;27;19908;-78
2022/01/30 03:48:37;;;;;;;;;;;2.20;99.90;;;;;;5136620;27;19981;-78
2022/01/30 03:51:02;;;;;;;;;;;2.10;99.90;;;;;;5137219;27;19919;-78
2022/01/30 03:53:31;;;;;;;;;;;2.10;99.90;;;;;;5136884;27;20340;-76
2022/01/30 03:55:56;;;;;;;;;;;2.00;99.90;;;;;;5137745;27;19907;-78
2022/01/30 03:58:22;;;;;;;;;;;2.00;99.90;;;;;;5151053;27;19916;-78
2022/01/30 04:00:48;;;;;;;;;;;2.00;99.90;;;;;;5153812;27;19904;-77
2022/01/30 04:03:13;;;;;;;;;;;1.90;99.90;;;;;;5139227;27;19919;-78
2022/01/30 04:05:39;;;;;;;;;;;1.90;99.90;;;;;;5137125;27;19914;-78
2022/01/30 04:08:05;;;;;;;;;;;1.90;99.90;;;;;;5137132;27;20325;-78
2022/01/30 04:10:31;;;;;;;;;;;2.00;99.90;;;;;;5136368;27;19912;-77
2022/01/30 04:12:57;;;;;;;;;;;2.00;99.90;;;;;;5136813;27;19907;-78
2022/01/30 04:15:22;;;;;;;;;;;2.10;99.90;;;;;;5137123;27;20006;-78
2022/01/30 04:17:48;;;;;;;;;;;2.10;99.90;;;;;;5136221;27;20080;-78
2022/01/30 04:20:14;;;;;;;;;;;2.10;99.90;;;;;;5137303;27;19911;-77
2022/01/30 04:22:40;;;;;;;;;;;2.10;99.90;;;;;;5136189;27;19994;-79
2022/01/30 04:25:06;;;;;;;;;;;2.10;99.90;;;;;;5136933;27;19911;-78
2022/01/30 04:27:31;;;;;;;;;;;2.20;99.90;;;;;;5136014;27;19914;-77
2022/01/30 04:29:57;;;;;;;;;;;2.30;99.90;;;;;;5136955;27;19907;-78
2022/01/30 04:32:25;;;;;;;;;;;2.20;99.90;;;;;;5136689;27;19986;-78
2022/01/30 04:34:56;;;;;;;;;;;2.20;99.90;;;;;;5135846;27;19907;-78
2022/01/30 04:37:30;;;;;;;;;;;2.10;99.90;;;;;;5136502;27;20375;-77
2022/01/30 05:04:19;;;;;;;;;;;1.90;99.90;;;;;;5135439;27;20002;-77
2022/01/30 05:09:18;;;;;;;;;;;1.80;99.90;;;;;;5136041;27;20040;-78
2022/01/30 05:11:43;;;;;;;;;;;1.70;99.90;;;;;;5135058;27;19947;-77
2022/01/30 05:14:09;;;;;;;;;;;1.70;99.90;;;;;;5135907;27;19926;-78
2022/01/30 05:16:35;;;;;;;;;;;1.70;99.90;;;;;;5135105;27;20006;-77
2022/01/30 05:19:01;;;;;;;;;;;1.60;99.90;;;;;;5135564;27;19912;-78
2022/01/30 05:21:27;;;;;;;;;;;1.60;99.90;;;;;;5117063;27;19907;-78
2022/01/30 05:23:52;;;;;;;;;;;1.60;99.90;;;;;;5135049;27;19903;-79
2022/01/30 05:26:20;;;;;;;;;;;1.50;99.90;;;;;;5135553;27;19907;-79
2022/01/30 05:28:46;;;;;;;;;;;1.60;99.90;;;;;;5134654;27;19907;-78
2022/01/30 05:31:12;;;;;;;;;;;1.70;99.90;;;;;;5117332;27;19912;-79
2022/01/30 05:33:37;;;;;;;;;;;1.70;99.90;;;;;;5134444;27;20376;-79
2022/01/30 05:36:03;;;;;;;;;;;1.80;99.90;;;;;;5135749;27;19931;-78
2022/01/30 05:38:30;;;;;;;;;;;1.80;99.90;;;;;;5117264;27;19918;-78
2022/01/30 05:40:56;;;;;;;;;;;1.80;99.90;;;;;;5134540;27;19911;-78
2022/01/30 05:43:23;;;;;;;;;;;1.70;99.90;;;;;;5135084;27;20253;-78
2022/01/30 05:45:54;;;;;;;;;;;1.80;99.90;;;;;;5134467;27;19920;-78
2022/01/30 05:48:20;;;;;;;;;;;1.80;99.90;;;;;;5135256;27;19907;-78
2022/01/30 05:50:46;;;;;;;;;;;1.90;99.90;;;;;;5134198;27;19919;-78
2022/01/30 05:53:13;;;;;;;;;;;2.00;99.90;;;;;;5135241;27;19908;-78
2022/01/30 05:55:39;;;;;;;;;;;2.10;99.90;;;;;;5134379;27;19908;-77
2022/01/30 05:58:05;;;;;;;;;;;2.00;99.90;;;;;;5134970;27;19912;-77
2022/01/30 06:00:30;;;;;;;;;;;2.10;99.90;;;;;;5146272;27;19920;-77
2022/01/30 06:02:56;;;;;;;;;;;2.10;99.90;;;;;;5136203;27;20010;-77
2022/01/30 06:05:24;;;;;;;;;;;2.10;99.90;;;;;;5116678;27;19908;-77
2022/01/30 06:07:53;;;;;;;;;;;2.10;99.90;;;;;;5134042;27;19959;-78
2022/01/30 06:10:19;;;;;;;;;;;2.10;99.90;;;;;;5134918;27;19951;-78
2022/01/30 06:12:45;;;;;;;;;;;2.10;99.90;;;;;;5134054;27;19907;-78
2022/01/30 06:15:13;;;;;;;;;;;2.10;99.90;;;;;;5134674;27;19914;-78
2022/01/30 06:17:39;;;;;;;;;;;2.10;99.90;;;;;;5133721;27;19912;-76
2022/01/30 06:20:05;;;;;;;;;;;2.10;99.90;;;;;;5134749;27;19912;-78
2022/01/30 06:22:31;;;;;;;;;;;2.10;99.90;;;;;;5134548;27;20250;-78
2022/01/30 06:24:57;;;;;;;;;;;2.00;99.90;;;;;;5133644;27;19911;-78
2022/01/30 06:27:22;;;;;;;;;;;2.00;99.90;;;;;;5134136;27;19907;-78
2022/01/30 06:29:48;;;;;;;;;;;2.00;99.90;;;;;;5134526;27;20401;-78
2022/01/30 06:32:15;;;;;;;;;;;2.00;99.90;;;;;;5147966;27;19912;-78
2022/01/30 06:34:41;;;;;;;;;;;2.00;99.90;;;;;;5149176;27;19907;-78
2022/01/30 06:37:07;;;;;;;;;;;2.00;99.90;;;;;;5134175;27;19918;-78
2022/01/30 06:39:32;;;;;;;;;;;1.90;99.90;;;;;;5115932;27;19954;-78
2022/01/30 06:41:58;;;;;;;;;;;2.00;99.90;;;;;;5133391;27;19911;-78
2022/01/30 06:44:23;;;;;;;;;;;2.00;99.90;;;;;;5134137;27;19970;-78
2022/01/30 06:46:49;;;;;;;;;;;2.10;99.90;;;;;;5133048;27;19993;-78
2022/01/30 06:49:15;;;;;;;;;;;2.20;99.90;;;;;;5134229;27;19907;-78
2022/01/30 06:51:40;;;;;;;;;;;2.20;99.90;;;;;;5133623;27;19920;-76
2022/01/30 06:54:06;;;;;;;;;;;2.20;99.90;;;;;;5134100;27;19908;-78
2022/01/30 06:56:31;;;;;;;;;;;2.20;99.90;;;;;;5134224;27;19918;-78
2022/01/30 06:58:57;;;;;;;;;;;2.30;99.90;;;;;;5132956;27;20363;-79
2022/01/30 07:01:23;;;;;;;;;;;2.30;99.90;;;;;;5134021;27;19907;-79
2022/01/30 07:03:49;;;;;;;;;;;2.40;99.90;;;;;;5133135;27;19908;-78
2022/01/30 07:06:14;;;;;;;;;;;2.50;99.90;;;;;;5133960;27;19933;-79
2022/01/30 07:08:40;;;;;;;;;;;2.50;99.90;;;;;;5133537;27;19953;-76
2022/01/30 07:11:06;;;;;;;;;;;2.50;99.90;;;;;;5133348;27;19915;-79
2022/01/30 07:13:31;;;;;;;;;;;2.60;99.90;;;;;;5133474;27;19908;-78
2022/01/30 07:15:57;;;;;;;;;;;2.60;99.90;;;;;;5151308;27;19934;-78
2022/01/30 07:18:22;;;;;;;;;;;2.70;99.90;;;;;;5133485;27;19981;-79
2022/01/30 07:20:48;;;;;;;;;;;2.80;99.90;;;;;;5114436;28;20352;-79
2022/01/30 07:23:13;;;;;;;;;;;2.80;99.90;;;;;;5133415;27;20257;-79
2022/01/30 07:25:40;;;;;;;;;;;2.90;99.90;;;;;;5133238;27;19915;-76
2022/01/30 07:28:05;;;;;;;;;;;2.90;99.90;;;;;;5132972;27;19911;-79
2022/01/30 07:30:31;;;;;;;;;;;2.90;99.90;;;;;;5133322;27;20402;-81
2022/01/30 07:32:56;;;;;;;;;;;2.90;99.90;;;;;;5132588;27;19907;-80
2022/01/30 07:35:22;;;;;;;;;;;2.90;99.90;;;;;;5115385;28;19907;-81
2022/01/30 07:37:48;;;;;;;;;;;2.90;99.90;;;;;;5132545;28;19911;-80
2022/01/30 07:40:14;;;;;;;;;;;3.00;99.90;;;;;;5133227;28;19923;-81
2022/01/30 07:42:39;;;;;;;;;;;3.00;99.90;;;;;;5132774;28;19912;-77
2022/01/30 07:45:05;;;;;;;;;;;2.90;99.90;;;;;;5114022;28;19907;-81
2022/01/30 07:47:31;;;;;;;;;;;3.00;99.90;;;;;;5132632;28;20387;-81
2022/01/30 07:49:57;;;;;;;;;;;3.00;99.90;;;;;;5132331;27;19914;-80
2022/01/30 07:52:23;;;;;;;;;;;2.90;99.90;;;;;;5133009;28;19908;-80
2022/01/30 07:54:49;;;;;;;;;;;3.00;99.90;;;;;;5135652;28;19945;-80
2022/01/30 07:57:14;;;;;;;;;;;2.90;99.90;;;;;;5132792;28;20465;-80
2022/01/30 07:59:41;;;;;;;;;;;2.90;99.90;;;;;;5132982;28;19959;-80
2022/01/30 08:02:07;;;;;;;;;;;2.80;99.90;;;;;;5131964;28;20380;-80
2022/01/30 08:04:33;;;;;;;;;;;2.80;99.90;;;;;;5132102;28;19918;-80
2022/01/30 08:06:59;;;;;;;;;;;2.80;99.90;;;;;;5131812;28;20002;-80
2022/01/30 08:09:25;;;;;;;;;;;2.70;99.90;;;;;;5132748;28;19995;-81
2022/01/30 08:11:50;;;;;;;;;;;2.70;99.90;;;;;;5131792;28;19939;-80
2022/01/30 08:14:16;;;;;;;;;;;2.70;99.90;;;;;;5132534;28;19907;-79
2022/01/30 08:16:42;;;;;;;;;;;2.70;99.90;;;;;;5132379;28;19911;-76
2022/01/30 08:19:07;;;;;;;;;;;2.70;99.90;;;;;;5132047;28;19911;-80
2022/01/30 08:21:33;;;;;;;;;;;2.60;99.90;;;;;;5132503;28;19912;-79
2022/01/30 08:23:58;;;;;;;;;;;2.60;99.90;;;;;;5132088;27;19907;-79
2022/01/30 08:26:24;;;;;;;;;;;2.80;99.90;;;;;;5136363;27;19998;-79
2022/01/30 08:28:49;;;;;;;;;;;2.80;99.90;;;;;;5143727;27;19898;-77
2022/01/30 08:31:15;;;;;;;;;;;2.80;99.90;;;;;;5150469;27;19959;-79
2022/01/30 08:33:41;;;;;;;;;;;2.90;99.90;;;;;;5117994;27;19995;-79
2022/01/30 08:36:06;;;;;;;;;;;2.80;99.90;;;;;;5135233;27;19903;-78
2022/01/30 08:38:32;;;;;;;;;;;2.80;99.90;;;;;;5135629;27;19919;-79
2022/01/30 08:40:57;;;;;;;;;;;2.70;99.90;;;;;;5135523;27;19907;-79
2022/01/30 08:43:23;;;;;;;;;;;2.80;99.90;;;;;;5136447;27;19912;-79
2022/01/30 08:45:50;;;;;;;;;;;2.80;99.90;;;;;;5135513;27;20296;-77
2022/01/30 08:48:16;;;;;;;;;;;2.80;99.90;;;;;;5136777;27;19983;-78
2022/01/30 08:50:42;;;;;;;;;;;2.90;99.90;;;;;;5136325;27;20344;-78
2022/01/30 08:53:08;;;;;;;;;;;3.00;99.90;;;;;;5135397;27;20664;-78
2022/01/30 08:55:33;;;;;;;;;;;2.90;99.90;;;;;;5138571;27;19911;-78
2022/01/30 08:58:07;;;;;;;;;;;3.00;99.90;;;;;;5150704;27;19918;-78
2022/01/30 09:00:33;;;;;;;;;;;3.20;99.90;;;;;;5147372;27;19911;-78
2022/01/30 09:02:59;;;;;;;;;;;3.20;99.90;;;;;;5138131;27;20269;-78
2022/01/30 09:05:25;;;;;;;;;;;3.20;99.90;;;;;;5137000;27;19907;-78
2022/01/30 09:07:50;;;;;;;;;;;3.20;99.90;;;;;;5135243;27;19908;-78
2022/01/30 09:10:16;;;;;;;;;;;3.20;99.90;;;;;;5136154;27;19911;-78
2022/01/30 09:12:41;;;;;;;;;;;3.20;99.90;;;;;;5135875;27;20382;-78
2022/01/30 09:15:08;;;;;;;;;;;3.20;99.90;;;;;;5135250;27;19911;-79
2022/01/30 09:17:34;;;;;;;;;;;3.30;99.90;;;;;;5135746;27;19919;-79
2022/01/30 09:20:00;;;;;;;;;;;3.30;99.90;;;;;;5135048;27;20378;-79
2022/01/30 09:22:26;;;;;;;;;;;3.30;99.90;;;;;;5135893;27;19936;-78
2022/01/30 09:24:51;;;;;;;;;;;3.30;99.90;;;;;;5134838;27;19960;-78
2022/01/30 09:27:17;;;;;;;;;;;3.40;99.90;;;;;;5135572;27;19907;-78
2022/01/30 09:29:44;;;;;;;;;;;3.50;99.90;;;;;;5136010;27;19987;-79
2022/01/30 09:32:10;;;;;;;;;;;3.60;99.90;;;;;;5134939;27;19990;-79
2022/01/30 09:34:36;;;;;;;;;;;3.60;99.90;;;;;;5135765;27;19942;-79
2022/01/30 09:37:02;;;;;;;;;;;3.70;99.90;;;;;;5115213;27;19912;-79
2022/01/30 09:39:37;;;;;;;;;;;3.70;99.90;;;;;;5135183;27;19919;-79
2022/01/30 09:42:03;;;;;;;;;;;3.80;99.90;;;;;;5134755;27;19907;-78
2022/01/30 09:44:29;;;;;;;;;;;4.00;99.90;;;;;;5140558;27;19908;-79
2022/01/30 09:46:54;;;;;;;;;;;4.10;99.90;;;;;;5149423;27;20019;-78
2022/01/30 09:49:24;;;;;;;;;;;4.40;99.90;;;;;;5135313;27;19907;-79
2022/01/30 09:51:50;;;;;;;;;;;4.60;99.90;;;;;;5134570;27;19926;-76
2022/01/30 09:54:16;;;;;;;;;;;4.80;99.90;;;;;;5116468;27;19931;-79
2022/01/30 09:56:42;;;;;;;;;;;5.00;99.90;;;;;;5134875;27;20348;-78
2022/01/30 09:59:08;;;;;;;;;;;5.20;99.90;;;;;;5133965;27;19912;-79
2022/01/30 10:01:34;;;;;;;;;;;5.40;99.90;;;;;;5135215;27;19907;-78
2022/01/30 10:04:00;;;;;;;;;;;5.60;99.90;;;;;;5134142;27;19908;-78
2022/01/30 10:06:35;;;;;;;;;;;5.80;99.90;;;;;;5133805;27;20301;-78
2022/01/30 10:09:20;;;;;;;;;;;6.00;99.90;;;;;;5134202;27;19908;-77
2022/01/30 10:11:59;;;;;;;;;;;6.20;99.90;;;;;;5135029;27;19907;-78
2022/01/30 10:14:24;;;;;;;;;;;6.40;99.90;;;;;;5134681;27;19911;-77
2022/01/30 10:16:50;;;;;;;;;;;6.50;99.90;;;;;;5134793;27;19912;-77
2022/01/30 10:19:23;;;;;;;;;;;6.70;99.90;;;;;;5133967;27;19911;-78
2022/01/30 10:22:09;;;;;;;;;;;6.70;99.90;;;;;;5134478;27;19914;-79
2022/01/30 10:24:38;;;;;;;;;;;6.80;99.90;;;;;;5133482;27;19908;-79
2022/01/30 10:27:20;;;;;;;;;;;6.80;99.90;;;;;;5133614;27;19911;-79
2022/01/30 10:29:54;;;;;;;;;;;6.80;99.90;;;;;;5134292;27;19997;-79
2022/01/30 10:32:21;;;;;;;;;;;6.90;99.90;;;;;;5134198;27;19908;-78
2022/01/30 10:34:55;;;;;;;;;;;6.90;99.90;;;;;;5134404;27;19908;-79
2022/01/30 10:37:22;;;;;;;;;;;6.90;99.90;;;;;;5134115;27;19972;-79
2022/01/30 10:39:52;;;;;;;;;;;6.90;99.90;;;;;;5134598;27;19911;-78
2022/01/30 10:42:31;;;;;;;;;;;6.90;99.90;;;;;;5133773;27;19911;-77
2022/01/30 10:44:57;;;;;;;;;;;6.90;99.90;;;;;;5132922;27;20356;-76
2022/01/30 10:47:22;;;;;;;;;;;7.00;99.90;;;;;;5114846;27;19960;-78
2022/01/30 10:49:48;;;;;;;;;;;7.00;99.90;;;;;;5115093;27;19952;-76
2022/01/30 10:52:14;;;;;;;;;;;7.00;99.90;;;;;;5132938;27;19911;-77
2022/01/30 10:54:40;;;;;;;;;;;7.10;99.90;;;;;;5134023;27;19915;-77
2022/01/30 10:57:07;;;;;;;;;;;7.20;99.90;;;;;;5133028;27;19911;-77
2022/01/30 10:59:33;;;;;;;;;;;7.20;99.90;;;;;;5134814;27;20257;-77
2022/01/30 11:02:12;;;;;;;;;;;7.20;99.90;;;;;;5126690;27;19908;-76
2022/01/30 11:04:38;;;;;;;;;;;7.30;99.90;;;;;;5133869;27;19907;-77
2022/01/30 11:07:04;;;;;;;;;;;7.40;99.90;;;;;;5132672;27;19911;-77
2022/01/30 11:09:38;;;;;;;;;;;7.40;99.90;;;;;;5133781;27;19994;-77
2022/01/30 11:12:10;;;;;;;;;;;7.40;99.90;;;;;;5132851;27;19955;-77
2022/01/30 11:14:39;;;;;;;;;;;7.50;99.90;;;;;;5133672;27;19907;-77
2022/01/30 11:17:08;;;;;;;;;;;7.50;99.90;;;;;;5132801;27;19917;-77
2022/01/30 11:19:35;;;;;;;;;;;7.60;99.90;;;;;;5133605;27;19916;-77
2022/01/30 11:22:12;;;;;;;;;;;7.60;99.90;;;;;;5132507;27;20312;-77
2022/01/30 11:24:56;;;;;;;;;;;7.70;99.90;;;;;;5133459;27;19930;-78
2022/01/30 11:27:22;;;;;;;;;;;7.70;99.90;;;;;;5133149;27;19907;-78
2022/01/30 11:29:48;;;;;;;;;;;7.80;99.90;;;;;;5133241;27;19908;-78
2022/01/30 11:32:15;;;;;;;;;;;7.80;99.90;;;;;;5132201;27;19991;-77
2022/01/30 11:34:42;;;;;;;;;;;7.80;99.90;;;;;;5140742;27;19912;-78
2022/01/30 11:37:08;;;;;;;;;;;7.90;99.90;;;;;;5133766;28;20014;-77
2022/01/30 11:39:35;;;;;;;;;;;7.90;99.90;;;;;;5133243;28;19922;-78
2022/01/30 11:42:21;;;;;;;;;;;7.90;99.90;;;;;;5132046;28;19957;-76
2022/01/30 11:44:47;;;;;;;;;;;8.00;99.90;;;;;;5132906;28;20363;-78
2022/01/30 11:47:15;;;;;;;;;;;8.00;99.90;;;;;;5132291;28;19908;-78
2022/01/30 11:49:43;;;;;;;;;;;8.00;99.90;;;;;;5132891;28;20265;-78
2022/01/30 11:52:10;;;;;;;;;;;8.10;99.90;;;;;;5132310;28;20258;-77
2022/01/30 11:54:36;;;;;;;;;;;8.20;99.90;;;;;;5133185;28;20379;-77
2022/01/30 11:57:03;;;;;;;;;;;8.20;99.90;;;;;;5132202;28;19912;-77
2022/01/30 11:59:38;;;;;;;;;;;8.20;99.90;;;;;;5134379;27;19919;-78
2022/01/30 12:02:23;;;;;;;;;;;8.20;99.90;;;;;;5136487;27;19912;-77
2022/01/30 12:04:56;;;;;;;;;;;8.30;99.90;;;;;;5137247;27;19930;-77
2022/01/30 12:07:32;;;;;;;;;;;8.40;99.90;;;;;;5136690;27;19903;-78
2022/01/30 12:10:16;;;;;;;;;;;8.50;99.90;;;;;;5137041;27;19914;-76
2022/01/30 12:12:52;;;;;;;;;;;8.50;99.90;;;;;;5137091;27;19912;-78
2022/01/30 12:15:37;;;;;;;;;;;8.50;99.90;;;;;;5117769;27;19914;-77
2022/01/30 12:18:04;;;;;;;;;;;8.50;99.90;;;;;;5137834;27;20364;-76
2022/01/30 12:20:31;;;;;;;;;;;8.50;99.90;;;;;;5136993;27;19956;-77
2022/01/30 12:22:57;;;;;;;;;;;8.50;99.90;;;;;;5137289;27;19907;-77
2022/01/30 12:25:30;;;;;;;;;;;8.50;99.90;;;;;;5136014;27;20264;-77
2022/01/30 12:27:57;;;;;;;;;;;8.60;99.90;;;;;;5136696;27;19908;-77
2022/01/30 12:30:33;;;;;;;;;;;8.60;99.90;;;;;;5136202;27;19910;-79
2022/01/30 12:32:59;;;;;;;;;;;8.60;99.90;;;;;;5136347;27;19908;-78
2022/01/30 12:35:25;;;;;;;;;;;8.70;99.90;;;;;;5135679;27;19919;-78
2022/01/30 12:37:50;;;;;;;;;;;8.70;99.90;;;;;;5136372;27;20356;-77
2022/01/30 12:40:17;;;;;;;;;;;8.80;99.90;;;;;;5135602;27;19911;-78
2022/01/30 12:42:43;;;;;;;;;;;8.90;99.90;;;;;;5117960;27;19907;-78
2022/01/30 12:45:09;;;;;;;;;;;8.90;99.90;;;;;;5135589;27;19917;-78
2022/01/30 12:47:47;;;;;;;;;;;9.00;99.90;;;;;;5127562;27;19918;-79
2022/01/30 12:50:13;;;;;;;;;;;9.00;99.90;;;;;;5135420;27;20283;-77
2022/01/30 12:52:39;;;;;;;;;;;9.00;99.90;;;;;;5136433;27;19952;-78
2022/01/30 12:55:10;;;;;;;;;;;9.00;99.90;;;;;;5135621;27;19907;-76
2022/01/30 12:57:37;;;;;;;;;;;9.10;99.90;;;;;;5135988;27;19918;-79
2022/01/30 13:00:05;;;;;;;;;;;9.10;99.90;;;;;;5135584;27;19911;-75
2022/01/30 13:02:30;;;;;;;;;;;9.10;99.90;;;;;;5135545;27;19908;-78
2022/01/30 13:05:07;;;;;;;;;;;9.20;99.90;;;;;;5135884;27;19915;-80
2022/01/30 13:07:33;;;;;;;;;;;9.20;99.90;;;;;;5136095;27;19915;-79
2022/01/30 13:10:06;;;;;;;;;;;9.10;99.90;;;;;;5135985;27;19907;-79
2022/01/30 13:12:32;;;;;;;;;;;9.10;99.90;;;;;;5135839;27;19914;-79
2022/01/30 13:14:58;;;;;;;;;;;9.10;99.90;;;;;;5135797;27;19908;-79
2022/01/30 13:17:30;;;;;;;;;;;9.00;99.90;;;;;;5134800;27;20103;-77
2022/01/30 13:19:56;;;;;;;;;;;9.10;99.90;;;;;;5135871;27;20309;-77
2022/01/30 13:22:28;;;;;;;;;;;9.00;99.90;;;;;;5134588;27;19914;-79
2022/01/30 13:24:54;;;;;;;;;;;9.00;99.90;;;;;;5135379;27;20378;-78
2022/01/30 13:27:20;;;;;;;;;;;9.00;99.90;;;;;;5134448;27;19951;-78
2022/01/30 13:29:45;;;;;;;;;;;9.00;99.90;;;;;;5116775;27;19998;-77
2022/01/30 13:32:12;;;;;;;;;;;9.00;99.90;;;;;;5134909;27;19915;-77
2022/01/30 13:34:38;;;;;;;;;;;8.90;99.90;;;;;;5135168;27;19908;-77
2022/01/30 13:37:05;;;;;;;;;;;8.90;99.90;;;;;;5135167;27;19958;-76
2022/01/30 13:39:36;;;;;;;;;;;8.80;99.90;;;;;;5134765;27;19958;-77
2022/01/30 13:47:56;;;;;;;;;;;8.60;99.90;;;;;;5134841;27;19951;-78
2022/01/30 13:50:31;;;;;;;;;;;8.60;99.90;;;;;;5134164;27;20048;-76
2022/01/30 13:53:20;;;;;;;;;;;8.60;99.90;;;;;;5135248;27;19907;-77
2022/01/30 13:55:53;;;;;;;;;;;8.70;99.90;;;;;;5120751;27;19947;-77
2022/01/30 13:58:20;;;;;;;;;;;8.70;99.90;;;;;;5133622;27;19919;-78
2022/01/30 14:00:46;;;;;;;;;;;8.80;99.90;;;;;;5134448;27;20279;-77
2022/01/30 14:03:20;;;;;;;;;;;8.90;99.90;;;;;;5133987;27;19908;-77
2022/01/30 14:05:46;;;;;;;;;;;9.00;99.90;;;;;;5149641;27;19914;-79
2022/01/30 14:08:15;;;;;;;;;;;9.10;99.90;;;;;;5134465;27;19907;-77
2022/01/30 14:10:41;;;;;;;;;;;9.10;99.90;;;;;;5134270;27;20004;-79
2022/01/30 14:13:08;;;;;;;;;;;9.10;99.90;;;;;;5131395;27;19947;-76
2022/01/30 14:15:36;;;;;;;;;;;9.00;99.90;;;;;;5134219;27;19964;-77
2022/01/30 14:18:05;;;;;;;;;;;8.80;99.90;;;;;;5134396;27;19958;-78
2022/01/30 14:20:31;;;;;;;;;;;8.80;99.90;;;;;;5133826;27;20193;-78
2022/01/30 14:23:04;;;;;;;;;;;8.80;99.90;;;;;;5133984;27;20467;-78
2022/01/30 14:25:30;;;;;;;;;;;8.80;99.90;;;;;;5133566;27;19907;-78
2022/01/30 14:27:56;;;;;;;;;;;8.80;99.90;;;;;;5134116;27;19908;-78
2022/01/30 14:30:34;;;;;;;;;;;8.80;99.90;;;;;;5133644;27;20009;-78
2022/01/30 14:32:59;;;;;;;;;;;8.80;99.90;;;;;;5134422;27;20272;-78
2022/01/30 14:35:25;;;;;;;;;;;8.90;99.90;;;;;;5133325;27;19952;-77
2022/01/30 14:37:51;;;;;;;;;;;8.90;99.90;;;;;;5115628;27;20408;-78
2022/01/30 14:40:18;;;;;;;;;;;9.00;99.90;;;;;;5133013;27;19911;-78
2022/01/30 14:42:43;;;;;;;;;;;9.10;99.90;;;;;;5133962;27;19915;-78
2022/01/30 14:45:09;;;;;;;;;;;9.20;99.90;;;;;;5133456;27;19972;-76
2022/01/30 14:47:35;;;;;;;;;;;9.20;99.90;;;;;;5133775;27;19908;-78
2022/01/30 14:50:00;;;;;;;;;;;9.20;99.90;;;;;;5133529;27;20294;-78
2022/01/30 14:52:26;;;;;;;;;;;9.20;99.90;;;;;;5132994;27;19930;-78
2022/01/30 14:54:51;;;;;;;;;;;9.10;99.90;;;;;;5133905;27;19911;-78
2022/01/30 14:57:21;;;;;;;;;;;9.10;99.90;;;;;;5132797;27;19918;-78
2022/01/30 14:59:47;;;;;;;;;;;9.10;99.90;;;;;;5133939;27;19954;-78
2022/01/30 15:02:13;;;;;;;;;;;9.20;99.90;;;;;;5133157;27;20431;-75
2022/01/30 15:04:38;;;;;;;;;;;9.20;99.90;;;;;;5133642;27;19914;-79
2022/01/30 15:07:04;;;;;;;;;;;9.30;99.90;;;;;;5133784;27;19911;-78
2022/01/30 15:09:30;;;;;;;;;;;9.30;99.90;;;;;;5132914;27;20046;-78
2022/01/30 15:11:55;;;;;;;;;;;9.40;99.90;;;;;;5133457;27;19907;-78
2022/01/30 15:14:24;;;;;;;;;;;9.40;99.90;;;;;;5135632;27;19968;-77
2022/01/30 15:16:51;;;;;;;;;;;9.50;99.90;;;;;;5153392;27;19911;-78
2022/01/30 15:19:18;;;;;;;;;;;9.50;99.90;;;;;;5157134;27;19900;-74
2022/01/30 15:21:43;;;;;;;;;;;9.50;99.90;;;;;;5141517;27;19911;-76
2022/01/30 15:24:10;;;;;;;;;;;9.50;99.90;;;;;;5149326;27;19941;-77
2022/01/30 15:26:36;;;;;;;;;;;9.50;99.90;;;;;;5141716;27;19913;-76
2022/01/30 15:29:02;;;;;;;;;;;9.40;99.90;;;;;;5133552;27;19907;-76
2022/01/30 15:31:28;;;;;;;;;;;9.40;99.90;;;;;;5132381;27;19911;-78
2022/01/30 15:33:54;;;;;;;;;;;9.40;99.90;;;;;;5132246;27;20013;-77
2022/01/30 15:36:19;;;;;;;;;;;9.40;99.90;;;;;;5132435;27;20017;-76